• Join FlightAware (Why Join?)
  • Login
  • US Flag 
01:30PM EDT


 

Airport Tracker/Info


-or-


 

Live Flight TrackerFlight Track Log ✈ DAL1214 ✈ 09-May-2014 ✈ KEWR - KDTW

Flight Track Log - Related Links

Times and Time Zones

All times are in EDT time to prevent confusion due to time zone crossing. See the DAL1214 flight status page for this flight to view local times or setup timezone preferences in your user account.

Time Position Orientation Groundspeed Altitude Reporting Facility
EDT Latitude Longitude Course Direction KTS MPH feet Rate Location/Type
06:08AM 40.6333 -74.2167 339° North 235 270 2,500  Level New York TRACON
06:09AM 40.6500 -74.3167 282° West 261 300 6,200 3,180 Climbing New York TRACON
06:11AM 40.7000 -74.3667 323° Northwest 266 306 9,000 2,460 Climbing New York TRACON
06:11AM 40.7294 -74.3775 344° North 284 327 10,100 2,580 Climbing New York Center
06:12AM 41.1776 -74.2925 346° North  Level FlightAware Approximate
06:12AM 40.8233 -74.3769 360° North 314 361 12,900  Level New York Center
06:13AM 41.2793 -74.3167 North  Level FlightAware Approximate
06:13AM 40.9044 -74.3758 North 349 402 14,000  Level New York Center
06:14AM 41.3800 -74.3483 339° North  Level FlightAware Approximate
06:14AM 41.0008 -74.4278 338° Northwest 348 400 14,900  Level New York Center
06:15AM 41.0706 -74.5250 314° West 348 400 16,000 1,500 Climbing New York Center
06:16AM 41.1444 -74.6311 313° West 362 417 17,900 1,560 Climbing New York Center
06:17AM 41.2122 -74.7206 315° West 385 443 19,100 1,680 Climbing New York Center
06:18AM 41.2853 -74.8353 310° West 390 449 21,300 1,740 Climbing New York Center
06:19AM 41.3628 -74.9478 313° West 396 456 22,700 1,440 Climbing New York Center
06:20AM 41.4397 -75.0631 312° West 402 463 24,200 1,380 Climbing New York Center
06:21AM 41.5189 -75.1789 312° West 413 475 25,500 1,200 Climbing New York Center
06:22AM 41.5975 -75.2981 311° West 418 481 26,600 900 Climbing New York Center
06:23AM 41.6806 -75.4175 313° West 423 487 27,400 840 Climbing New York Center
06:24AM 41.7586 -75.5481 309° West 436 502 28,400 1,260 Climbing New York Center
06:25AM 41.8003 -75.7011 290° West 436 502 29,900 1,560 Climbing New York Center
06:26AM 41.8431 -75.8714 289° West 436 502 31,600 1,020 Climbing New York Center
06:27AM 41.8819 -76.0250 289° West 436 502 32,000 180 Climbing New York Center
06:28AM 41.9233 -76.1758 290° West 436 502 32,000 600 Level New York Center
06:29AM 41.9597 -76.3294 288° West 436 502 33,200 840 Climbing New York Center
06:30AM 42.0089 -76.5189 289° West 430 495 34,000 300 Climbing Cleveland Center
06:31AM 42.0461 -76.6656 289° West 422 486 34,000  Level Cleveland Center
06:32AM 42.0833 -76.8133 289° West 418 481 34,000  Level Cleveland Center
06:33AM 42.1208 -76.9611 289° West 418 481 34,000  Level Cleveland Center
06:34AM 42.1564 -77.1089 288° West 417 480 34,000  Level Cleveland Center
06:35AM 42.1925 -77.2569 288° West 417 480 34,000  Level Cleveland Center
06:36AM 42.2300 -77.4075 289° West 417 480 34,000  Level Cleveland Center
06:37AM 42.2683 -77.5567 289° West 418 481 34,000  Level Cleveland Center
06:38AM 42.3158 -77.7028 294° West 421 484 34,000  Level Cleveland Center
06:39AM 42.3631 -77.8497 294° West 422 486 34,000  Level Cleveland Center
06:41AM 42.4100 -77.9967 293° West 422 486 34,000  Level Cleveland Center
06:42AM 42.4669 -78.1719 294° West 422 486 34,000 -60 Level Cleveland Center
06:43AM 42.5119 -78.3175 293° West 421 484 33,900  Descending Cleveland Center
06:44AM 42.5589 -78.4642 294° West 422 486 34,000  Climbing Cleveland Center
06:45AM 42.6069 -78.6117 294° West 427 491 34,000  Level Cleveland Center
06:46AM 42.6531 -78.7592 293° West 426 490 34,000  Level Cleveland Center
06:47AM 42.6961 -78.9083 291° West 425 489 34,000 -420 Level Cleveland Center
06:48AM 42.7147 -79.0639 279° West 422 486 33,200 -900 Descending Cleveland Center
06:49AM 42.7167 -79.2250 271° West 426 490 32,200 -600 Descending Cleveland Center
06:50AM 42.7167 -79.3900 270° West 435 501 32,000 -480 Descending Cleveland Center
06:51AM 42.7161 -79.5531 270° West 435 501 31,300 -540 Descending Cleveland Center
06:52AM 42.7153 -79.7500 270° West 435 501 31,000 -180 Descending Cleveland Center
06:53AM 42.7144 -79.9147 270° West 436 502 31,000  Level Cleveland Center
06:54AM 42.7131 -80.0733 269° West 435 501 31,000  Level Cleveland Center
06:55AM 42.7119 -80.2408 270° West 438 504 31,000 -180 Level Cleveland Center
06:56AM 42.7111 -80.4075 270° West 438 504 30,700 -660 Descending Cleveland Center
06:57AM 42.7097 -80.5725 269° West 437 503 29,700 -1,020 Descending Cleveland Center
06:58AM 42.7081 -80.7317 269° West 421 484 28,700 -1,020 Descending Cleveland Center
06:59AM 42.7058 -80.8903 269° West 418 481 27,700 -1,080 Descending Cleveland Center
07:00AM 42.6858 -81.0667 261° West 406 467 26,500 -1,080 Descending Cleveland Center
07:01AM 42.6692 -81.2172 261° West 405 466 25,600 -960 Descending Cleveland Center
07:02AM 42.6531 -81.3639 262° West 395 455 24,600 -1,020 Descending Cleveland Center
07:03AM 42.6347 -81.5122 261° West 395 455 23,600 -1,020 Descending Cleveland Center
07:04AM 42.6178 -81.6575 261° West 392 451 22,600 -1,020 Descending Cleveland Center
07:05AM 42.6003 -81.7997 261° West 380 437 21,600 -960 Descending Cleveland Center
07:06AM 42.5839 -81.9394 261° West 376 433 20,700 -960 Descending Cleveland Center
07:07AM 42.5669 -82.0769 261° West 373 429 19,700 -1,260 Descending Cleveland Center
07:08AM 42.5500 -82.2100 236° Southwest 363 418 18,200 -2,040 Descending Cleveland Center
07:09AM 42.5376 -82.2687 256° West  Level FlightAware Approximate
07:09AM 42.5406 -82.2875 261° West 343 395 16,700  Level Cleveland Center
07:09AM 42.5319 -82.3486 259° West 338 389 15,600 -2,220 Descending Cleveland Center
07:10AM 42.5172 -82.4714 261° West 329 379 13,400 -1,800 Descending Cleveland Center
07:11AM 42.4922 -82.5947 255° West 314 361 11,900 -1,560 Descending Cleveland Center
07:12AM 42.4553 -82.6953 244° Southwest 306 352 10,300 -1,380 Descending Cleveland Center
07:13AM 42.4231 -82.7894 245° Southwest 279 321 9,100 -1,440 Descending Cleveland Center
07:14AM 42.4203 -82.8886 268° West 268 308 7,400 -1,620 Descending Cleveland Center
07:15AM 42.4175 -82.9842 268° West 256 295 6,000 -1,140 Descending Cleveland Center
07:16AM 42.2755 -83.1657 236° Southwest  Level FlightAware Approximate
07:16AM 42.4144 -83.0828 268° West 251 289 5,100  Level Cleveland Center
07:17AM 42.2299 -83.2903 236° Southwest  Level FlightAware Approximate
07:17AM 42.4061 -83.1636 262° West 181 208 4,800  Level Cleveland Center
07:18AM 42.3769 -83.2161 233° Southwest 166 191 4,000 -840 Descending Cleveland Center
07:19AM 42.3369 -83.2472 210° Southwest 165 190 3,200 -720 Descending Cleveland Center
07:19AM 42.3328 -83.2508 213° Southwest 169 194 3,200 -900 Level Cleveland Center
07:20AM 42.2967 -83.2783 209° Southwest 161 185 2,300 -900 Descending Cleveland Center
07:20AM 42.2928 -83.2794 192° South 167 192 2,300 -720 Level Cleveland Center
07:21AM 42.2614 -83.3017 208° Southwest 132 152 1,600 -720 Descending Cleveland Center
07:21AM 42.2597 -83.3047 234° Southwest 142 163 1,600 -540 Level Cleveland Center
07:22AM 42.2247 -83.3308 209° Southwest 136 157 1,000 -600 Descending Cleveland Center